Airfield :
LOGIN :

Register | Disclaimer

   EN    FR    IT 

 










Legend :    VFR   Marginal VFR   IFR   Intensive IFR   Very Intensive IFR
Visi :
Ceiling :
>= 8 km
>= 3000ft
5 to 8 km
1000 to 3000 ft
1500m to 5 km
500 to 1000 ft
800 to 1500m
200 to 500 ft
< 800m
< 200 ft
Symbols :   Thunderstorms  Fog  Heavy snow  Heavy precipitations  Wind > 20 kt
SIGMETs :     Misc.  Thunderstorms  Icing  Turbulence  Mountain Waves  Volcanic Ashes






- Airport Elevation : 3245 ft
- IATA code : TID


DAOB - Bou Chekif - Tiaret

CURRENT METAR :
  • 241800Z 30010KT 9999 FEW026 SCT220 24/05 Q1013

EXPIRED METARs :
  • 241700Z 28009KT 9999 FEW026 26/05 Q1012
  • 241600Z 28012KT 9999 FEW026 28/03 Q1012

TAF TAF DAOB
Valid from the 24 at 18:00 until the 25 at 18:00 UTC


241700Z 2418/2518 30012KT 9999 FEW026
PROB30
TEMPO 2418/2506 32015G30KT 3000 DRSA FEW030CB
PROB40
TEMPO 2418/2424 VRB15G25KT 4000 -TSRA FEW026CB



MET'MAP, your aeronautical weather chart ! - Copyright ORBIFLY December 2007 - Disclaimer

ORBIFLY MET'MAP TEAM :

Programming & Development : Alexandra Zaïnal
Original concept : Baudouin d'Aumeries
Technical & hardware support : Manuel Goepfert
Assistance : Marc-Olivier Méhu

Contact : metmap@orbifly.com




SOURCES & CREDITS :

   NOAA